Time;durP1;ratioP1;P1;durP2;ratioP2;P2;SDS_P1;SDS_P2;PMS_P1;PMS_P2;Temp;Humidity;BMP_temperature;BMP_pressure;BME280_temperature;BME280_humidity;BME280_pressure;Samples;Min_cycle;Max_cycle;Signal;HPM_P1;HPM_P2
2021/12/10 00:01:49;;;;;;;19.33;14.87;;;1.90;99.90;;;;;;5015905;28;20264;-89
2021/12/10 00:04:17;;;;;;;16.43;14.63;;;2.00;99.90;;;;;;5014843;28;20672;-90
2021/12/10 00:06:51;;;;;;;14.20;12.50;;;2.10;99.90;;;;;;5013720;28;20174;-90
2021/12/10 00:09:22;;;;;;;16.37;13.43;;;2.10;99.90;;;;;;5013364;28;20203;-90
2021/12/10 00:11:52;;;;;;;17.70;14.20;;;2.10;99.90;;;;;;5013503;28;20654;-89
2021/12/10 00:14:20;;;;;;;16.63;13.37;;;2.10;99.90;;;;;;5013515;28;20175;-90
2021/12/10 00:16:46;;;;;;;17.90;13.83;;;2.20;99.90;;;;;;5031129;28;20169;-90
2021/12/10 00:19:26;;;;;;;17.10;14.53;;;2.30;99.90;;;;;;5030751;28;20185;-90
2021/12/10 00:21:56;;;;;;;18.80;15.67;;;2.30;99.90;;;;;;5013682;28;20183;-89
2021/12/10 00:24:25;;;;;;;18.70;15.43;;;2.10;99.90;;;;;;5031140;28;20307;-90
2021/12/10 00:26:53;;;;;;;16.00;14.30;;;2.10;99.90;;;;;;5031400;28;20174;-88
2021/12/10 00:29:19;;;;;;;17.93;14.50;;;2.20;99.90;;;;;;5031255;28;20222;-89
2021/12/10 00:31:54;;;;;;;18.90;15.70;;;2.30;99.90;;;;;;5015445;28;20263;-89
2021/12/10 00:34:34;;;;;;;17.60;14.67;;;2.20;99.90;;;;;;5045934;28;20169;-89
2021/12/10 00:37:05;;;;;;;18.40;15.30;;;2.20;99.90;;;;;;5042270;28;20185;-89
2021/12/10 00:39:42;;;;;;;19.80;16.73;;;2.10;99.90;;;;;;5036034;28;20170;-89
2021/12/10 00:42:12;;;;;;;21.00;16.93;;;2.10;99.90;;;;;;5035285;28;20163;-90
2021/12/10 00:44:38;;;;;;;18.23;15.40;;;2.10;99.90;;;;;;5014002;28;20177;-89
2021/12/10 00:47:05;;;;;;;19.07;15.57;;;2.10;99.90;;;;;;5016502;28;20190;-89
2021/12/10 00:49:32;;;;;;;21.33;16.80;;;2.10;99.90;;;;;;5035362;28;20209;-89
2021/12/10 00:51:57;;;;;;;20.00;16.43;;;2.10;99.90;;;;;;5016477;28;20248;-88
2021/12/10 00:54:23;;;;;;;20.43;17.17;;;2.10;99.90;;;;;;5014271;28;20584;-88
2021/12/10 00:56:49;;;;;;;19.10;16.20;;;2.10;99.90;;;;;;5031302;28;20252;-88
2021/12/10 00:59:19;;;;;;;19.57;15.33;;;2.10;99.90;;;;;;5014228;28;20187;-88
2021/12/10 01:01:46;;;;;;;16.43;14.33;;;2.10;99.90;;;;;;5013230;28;20200;-87
2021/12/10 01:04:22;;;;;;;17.00;13.83;;;2.20;99.90;;;;;;5012712;28;20184;-88
2021/12/10 01:06:50;;;;;;;14.90;13.30;;;2.10;99.90;;;;;;5016163;28;20171;-87
2021/12/10 01:09:20;;;;;;;15.43;13.63;;;2.10;99.90;;;;;;5034742;28;20210;-87
2021/12/10 01:11:51;;;;;;;15.90;12.97;;;2.20;99.90;;;;;;5033814;28;20163;-88
2021/12/10 01:14:40;;;;;;;14.67;12.40;;;2.10;99.90;;;;;;5034273;28;20156;-87
2021/12/10 01:25:39;;;;;;;13.97;12.13;;;2.10;99.90;;;;;;4996302;28;20639;-88
2021/12/10 01:28:07;;;;;;;15.80;13.83;;;2.00;99.90;;;;;;5034103;28;20173;-88
2021/12/10 01:30:36;;;;;;;14.83;13.27;;;2.00;99.90;;;;;;5033607;28;20195;-88
2021/12/10 01:33:08;;;;;;;14.80;13.23;;;2.00;99.90;;;;;;5015647;28;20179;-88
2021/12/10 01:35:39;;;;;;;15.10;13.53;;;2.00;99.90;;;;;;5033673;28;20169;-88
2021/12/10 01:38:07;;;;;;;15.97;13.43;;;2.00;99.90;;;;;;5015798;28;20173;-88
2021/12/10 01:40:35;;;;;;;15.10;13.03;;;2.00;99.90;;;;;;5015442;28;20260;-88
2021/12/10 01:43:07;;;;;;;15.10;13.30;;;2.00;99.90;;;;;;5033411;28;20175;-88
2021/12/10 01:45:36;;;;;;;14.27;12.73;;;2.00;99.90;;;;;;5023288;28;20173;-88
2021/12/10 01:48:10;;;;;;;17.70;14.80;;;1.90;99.90;;;;;;5028271;28;20208;-88
2021/12/10 01:50:36;;;;;;;15.77;13.37;;;2.00;99.90;;;;;;5047286;28;20208;-87
2021/12/10 01:53:12;;;;;;;16.27;13.97;;;2.00;99.90;;;;;;5037991;28;20186;-88
2021/12/10 01:55:40;;;;;;;15.00;13.20;;;1.90;99.90;;;;;;5016925;28;20180;-89
2021/12/10 01:58:10;;;;;;;16.80;14.33;;;1.90;99.90;;;;;;5016079;28;20179;-87
2021/12/10 02:00:39;;;;;;;17.53;13.47;;;1.90;99.90;;;;;;5015549;28;20246;-87
2021/12/10 02:03:05;;;;;;;16.13;13.73;;;1.80;99.90;;;;;;5015559;28;20182;-88
2021/12/10 02:05:32;;;;;;;17.13;14.83;;;1.80;99.90;;;;;;5016012;28;20231;-87
2021/12/10 02:07:58;;;;;;;14.93;13.13;;;1.80;99.90;;;;;;5023985;28;20186;-88
2021/12/10 02:10:26;;;;;;;16.00;13.93;;;1.80;99.90;;;;;;5032811;28;20198;-88
2021/12/10 02:12:53;;;;;;;15.73;13.67;;;1.70;99.90;;;;;;5014878;28;20180;-87
2021/12/10 02:15:22;;;;;;;17.37;13.90;;;1.70;99.90;;;;;;5032637;28;20241;-88
2021/12/10 02:17:50;;;;;;;16.77;13.97;;;1.70;99.90;;;;;;5032691;28;20682;-88
2021/12/10 02:20:42;;;;;;;16.93;14.17;;;1.80;99.90;;;;;;5032424;28;20178;-88
2021/12/10 02:23:08;;;;;;;15.20;13.40;;;1.80;99.90;;;;;;5030470;28;20189;-87
2021/12/10 02:25:37;;;;;;;16.50;13.13;;;1.80;99.90;;;;;;5035760;28;20194;-88
2021/12/10 02:28:05;;;;;;;16.70;13.70;;;1.80;99.90;;;;;;5015717;28;20188;-88
2021/12/10 02:30:31;;;;;;;16.90;13.80;;;1.70;99.90;;;;;;5033225;28;20217;-88
2021/12/10 02:32:57;;;;;;;18.47;15.03;;;1.70;99.90;;;;;;5032646;28;20165;-89
2021/12/10 02:35:24;;;;;;;17.73;15.03;;;1.80;99.90;;;;;;5032409;28;20175;-88
2021/12/10 02:37:50;;;;;;;19.03;15.77;;;1.80;99.90;;;;;;5032254;28;20179;-88
2021/12/10 02:40:19;;;;;;;19.27;15.10;;;1.60;99.90;;;;;;5014433;28;20256;-88
2021/12/10 02:42:48;;;;;;;20.33;16.20;;;1.60;99.90;;;;;;5032198;28;20168;-88
2021/12/10 02:45:16;;;;;;;21.47;16.33;;;1.30;99.90;;;;;;5014111;28;20243;-88
2021/12/10 02:47:43;;;;;;;21.10;16.13;;;1.20;99.90;;;;;;5014143;28;20664;-88
2021/12/10 02:50:12;;;;;;;23.50;17.40;;;1.20;99.90;;;;;;5014173;28;20218;-88
2021/12/10 02:52:38;;;;;;;23.37;16.73;;;1.10;99.90;;;;;;5032266;28;20204;-88
2021/12/10 02:55:09;;;;;;;24.57;17.17;;;1.00;99.90;;;;;;5031928;28;20205;-88
2021/12/10 02:57:36;;;;;;;25.23;17.37;;;0.90;99.90;;;;;;5014124;28;20275;-88
2021/12/10 03:00:07;;;;;;;23.50;16.97;;;0.90;99.90;;;;;;5013958;28;20178;-88
2021/12/10 03:02:33;;;;;;;25.03;17.33;;;0.90;99.90;;;;;;5014040;28;20187;-87
2021/12/10 03:04:59;;;;;;;24.90;18.23;;;0.90;99.90;;;;;;5014472;28;20654;-87
2021/12/10 03:07:25;;;;;;;24.27;17.20;;;0.90;99.90;;;;;;5014787;28;20184;-88
2021/12/10 03:09:53;;;;;;;24.23;17.40;;;1.10;99.90;;;;;;5015558;28;20225;-88
2021/12/10 03:12:21;;;;;;;27.20;17.90;;;1.20;99.90;;;;;;5036652;28;20183;-88
2021/12/10 03:14:50;;;;;;;24.50;17.73;;;1.20;99.90;;;;;;5045662;28;20242;-88
2021/12/10 03:17:25;;;;;;;24.93;17.37;;;1.20;99.90;;;;;;5053988;28;20282;-88
2021/12/10 03:19:51;;;;;;;24.40;17.10;;;1.30;99.90;;;;;;5041571;28;20177;-87
2021/12/10 03:22:18;;;;;;;26.53;17.60;;;1.40;99.90;;;;;;5032067;28;20172;-88
2021/12/10 03:24:45;;;;;;;23.77;17.80;;;1.40;99.90;;;;;;5032050;28;20243;-88
2021/12/10 03:27:14;;;;;;;24.53;17.30;;;1.40;99.90;;;;;;5031763;28;20228;-88
2021/12/10 03:29:43;;;;;;;25.80;17.37;;;1.40;99.90;;;;;;5035820;28;20210;-88
2021/12/10 03:32:15;;;;;;;22.17;16.97;;;1.10;99.90;;;;;;5037536;28;20187;-87
2021/12/10 03:34:42;;;;;;;25.47;17.57;;;1.00;99.90;;;;;;5024750;28;20220;-88
2021/12/10 03:37:08;;;;;;;23.70;16.20;;;0.80;99.90;;;;;;5028762;28;20175;-87
2021/12/10 03:39:35;;;;;;;25.83;17.17;;;0.90;99.90;;;;;;5048337;28;20193;-86
2021/12/10 03:42:02;;;;;;;26.10;17.77;;;0.90;99.90;;;;;;5030352;28;20196;-88
2021/12/10 03:44:28;;;;;;;25.47;16.80;;;0.80;99.90;;;;;;5012398;28;20190;-87
2021/12/10 03:46:55;;;;;;;26.37;18.20;;;0.70;99.90;;;;;;5010556;28;20199;-88
2021/12/10 03:49:21;;;;;;;24.80;17.93;;;0.50;99.90;;;;;;5006269;28;20220;-88
2021/12/10 03:51:48;;;;;;;26.97;17.67;;;0.60;99.90;;;;;;5013522;28;20177;-87
2021/12/10 03:54:17;;;;;;;24.37;16.80;;;0.50;99.90;;;;;;5012425;28;20709;-89
2021/12/10 03:56:46;;;;;;;24.63;16.90;;;0.50;99.90;;;;;;5012090;28;20172;-87
2021/12/10 03:59:15;;;;;;;27.10;17.57;;;0.40;99.90;;;;;;5011578;28;20228;-89
2021/12/10 04:01:44;;;;;;;30.47;18.50;;;0.20;99.90;;;;;;5015366;28;20183;-86
2021/12/10 04:04:17;;;;;;;23.60;16.57;;;0.30;99.90;;;;;;5016508;28;20268;-87
2021/12/10 04:06:43;;;;;;;23.70;16.10;;;0.30;99.90;;;;;;5011655;28;20216;-89
2021/12/10 04:09:09;;;;;;;25.47;17.03;;;0.20;99.90;;;;;;5012512;28;20222;-86
2021/12/10 04:11:35;;;;;;;25.67;17.43;;;0.20;99.90;;;;;;5008737;28;20182;-87
2021/12/10 04:14:01;;;;;;;24.57;16.17;;;0.20;99.90;;;;;;5031724;28;20235;-87
2021/12/10 04:16:29;;;;;;;22.63;16.47;;;0.20;99.90;;;;;;5011849;28;20663;-87
2021/12/10 04:18:57;;;;;;;26.53;16.53;;;0.40;99.90;;;;;;5007363;28;20206;-87
2021/12/10 04:21:23;;;;;;;24.10;17.13;;;0.40;99.90;;;;;;5002547;28;20190;-87
2021/12/10 04:23:49;;;;;;;25.47;16.40;;;0.40;99.90;;;;;;5011636;28;20239;-88
2021/12/10 04:26:19;;;;;;;25.20;17.60;;;0.40;99.90;;;;;;5008030;28;20186;-87
2021/12/10 04:28:46;;;;;;;26.37;17.63;;;0.40;99.90;;;;;;5010956;28;20207;-87
2021/12/10 04:31:13;;;;;;;23.90;16.53;;;0.50;99.90;;;;;;5011634;28;20717;-88
2021/12/10 04:33:38;;;;;;;24.23;16.37;;;0.60;99.90;;;;;;5031024;28;20181;-89
2021/12/10 04:36:05;;;;;;;23.60;17.13;;;0.50;99.90;;;;;;5030578;28;20257;-87
2021/12/10 04:38:33;;;;;;;27.00;17.50;;;0.50;99.90;;;;;;5030673;28;20187;-88
2021/12/10 04:41:03;;;;;;;26.33;17.33;;;0.50;99.90;;;;;;5031048;28;20307;-87
2021/12/10 04:43:32;;;;;;;25.83;18.33;;;0.30;99.90;;;;;;5012966;28;20222;-88
2021/12/10 04:45:59;;;;;;;25.23;17.23;;;0.40;99.90;;;;;;5030723;28;20513;-88
2021/12/10 04:48:27;;;;;;;23.03;16.83;;;0.40;99.90;;;;;;5015223;28;20180;-88
2021/12/10 04:50:54;;;;;;;26.10;18.10;;;0.60;99.90;;;;;;5034223;28;20201;-88
2021/12/10 04:53:20;;;;;;;26.67;18.67;;;0.70;99.90;;;;;;5016799;28;20171;-88
2021/12/10 04:55:46;;;;;;;28.03;19.33;;;0.70;99.90;;;;;;5016313;28;20233;-88
2021/12/10 04:58:12;;;;;;;26.60;18.67;;;0.60;99.90;;;;;;5016554;28;20188;-88
2021/12/10 05:00:46;;;;;;;29.93;19.60;;;0.60;99.90;;;;;;5036273;28;20176;-88
2021/12/10 05:03:13;;;;;;;29.97;19.50;;;0.30;99.90;;;;;;5018389;28;20173;-88
2021/12/10 05:05:41;;;;;;;27.43;18.77;;;0.20;99.90;;;;;;5022543;28;20182;-88
2021/12/10 05:08:07;;;;;;;28.03;19.27;;;0.50;99.90;;;;;;5050265;28;20245;-88
2021/12/10 05:10:34;;;;;;;27.37;18.90;;;0.60;99.90;;;;;;5053160;28;20246;-88
2021/12/10 05:13:00;;;;;;;25.17;18.73;;;0.60;99.90;;;;;;5039492;28;20234;-88
2021/12/10 05:15:29;;;;;;;27.40;18.80;;;0.70;99.90;;;;;;5035024;28;20638;-89
2021/12/10 05:17:55;;;;;;;23.07;16.97;;;0.70;99.90;;;;;;5033838;28;20333;-89
2021/12/10 05:20:35;;;;;;;25.93;17.50;;;0.60;99.90;;;;;;5015919;28;20541;-89
2021/12/10 05:23:01;;;;;;;26.70;18.40;;;0.50;99.90;;;;;;5016544;28;20178;-88
2021/12/10 05:25:28;;;;;;;27.10;17.07;;;0.40;99.90;;;;;;5016193;28;20189;-88
2021/12/10 05:27:55;;;;;;;29.60;17.97;;;0.30;99.90;;;;;;5015553;28;20234;-87
2021/12/10 05:30:27;;;;;;;26.87;17.43;;;0.10;99.90;;;;;;5015560;28;20236;-87
2021/12/10 05:32:53;;;;;;;25.97;17.80;;;-0.10;99.90;;;;;;5033295;28;20621;-88
2021/12/10 05:35:19;;;;;;;26.47;17.07;;;0.00;99.90;;;;;;5015267;28;20268;-88
2021/12/10 05:37:45;;;;;;;26.80;17.43;;;0.00;99.90;;;;;;5015739;28;20177;-88
2021/12/10 05:40:14;;;;;;;26.17;17.40;;;-0.20;99.90;;;;;;5033692;28;20174;-89
2021/12/10 05:42:45;;;;;;;26.87;17.30;;;0.00;99.90;;;;;;5033892;28;20172;-89
2021/12/10 05:45:12;;;;;;;28.13;16.67;;;-0.20;99.90;;;;;;5016662;28;20178;-88
2021/12/10 05:47:38;;;;;;;27.23;17.83;;;-0.30;99.90;;;;;;5034770;28;20176;-89
2021/12/10 05:50:09;;;;;;;27.93;17.80;;;-0.40;99.90;;;;;;5016321;28;20215;-90
2021/12/10 05:52:35;;;;;;;27.83;17.87;;;-0.30;99.90;;;;;;5033183;28;20184;-90
2021/12/10 05:55:01;;;;;;;26.87;17.40;;;-0.50;99.90;;;;;;5033396;28;20181;-86
2021/12/10 05:57:27;;;;;;;24.03;15.50;;;-0.40;99.90;;;;;;5015347;28;20176;-88
2021/12/10 05:59:55;;;;;;;27.63;17.73;;;-0.40;99.90;;;;;;5014333;28;20177;-89
2021/12/10 06:02:21;;;;;;;27.70;17.30;;;-0.40;99.90;;;;;;5014719;28;20276;-88
2021/12/10 06:04:47;;;;;;;27.97;17.53;;;-0.40;99.90;;;;;;5014873;28;20230;-88
2021/12/10 06:07:13;;;;;;;30.10;17.87;;;-0.40;99.90;;;;;;5036014;28;20179;-88
2021/12/10 06:09:39;;;;;;;27.30;16.67;;;-0.60;99.90;;;;;;5026652;28;20291;-89
2021/12/10 06:12:06;;;;;;;26.87;16.23;;;-0.70;99.90;;;;;;5022287;28;20551;-89
2021/12/10 06:14:32;;;;;;;23.47;16.30;;;-0.60;99.90;;;;;;5016007;28;20256;-88
2021/12/10 06:16:58;;;;;;;27.40;17.47;;;-0.60;99.90;;;;;;5036973;28;20215;-88
2021/12/10 06:19:24;;;;;;;23.27;16.07;;;-0.60;99.90;;;;;;5021491;28;20184;-88
2021/12/10 06:21:52;;;;;;;25.07;16.03;;;-0.80;99.90;;;;;;5015372;28;20173;-89
2021/12/10 06:24:17;;;;;;;28.07;16.03;;;-1.10;99.90;;;;;;5033164;28;20583;-88
2021/12/10 06:26:46;;;;;;;25.53;15.93;;;-1.10;99.90;;;;;;5032582;28;20169;-88
2021/12/10 06:29:12;;;;;;;25.13;15.30;;;-1.00;99.90;;;;;;5014859;28;20214;-89
2021/12/10 06:31:40;;;;;;;26.40;15.90;;;-0.90;99.90;;;;;;5014386;28;20180;-88
2021/12/10 06:34:06;;;;;;;24.40;15.77;;;-0.80;99.90;;;;;;5032034;28;20206;-86
2021/12/10 06:36:35;;;;;;;24.87;15.33;;;-0.80;99.90;;;;;;5031541;28;20181;-90
2021/12/10 06:39:03;;;;;;;27.70;16.17;;;-1.00;99.90;;;;;;5032212;28;20207;-91
2021/12/10 06:41:28;;;;;;;26.97;16.40;;;-1.00;99.90;;;;;;5014301;28;20182;-89
2021/12/10 06:43:55;;;;;;;23.47;15.27;;;-0.60;99.90;;;;;;5032415;28;20255;-90
2021/12/10 06:46:21;;;;;;;26.23;15.17;;;-0.70;99.90;;;;;;5014638;28;20230;-91
2021/12/10 06:48:46;;;;;;;23.17;15.30;;;-0.70;99.90;;;;;;5032990;28;20204;-89
2021/12/10 06:51:19;;;;;;;22.60;14.53;;;-0.60;99.90;;;;;;5016972;28;20176;-87
2021/12/10 06:53:46;;;;;;;23.63;15.27;;;-0.50;99.90;;;;;;5032149;28;20224;-89
2021/12/10 06:56:14;;;;;;;25.17;15.50;;;-0.50;99.90;;;;;;5021033;28;20780;-88
2021/12/10 06:58:43;;;;;;;22.57;15.27;;;-0.40;99.90;;;;;;5026027;28;20239;-88
2021/12/10 07:01:31;;;;;;;25.60;16.63;;;-0.50;99.90;;;;;;5021312;28;20222;-88
2021/12/10 07:04:00;;;;;;;22.03;14.20;;;-0.60;99.90;;;;;;5031372;28;20500;-88
2021/12/10 07:06:28;;;;;;;26.17;15.73;;;-0.50;99.90;;;;;;5031506;28;20177;-88
2021/12/10 07:08:56;;;;;;;26.33;16.33;;;-0.50;99.90;;;;;;5013376;28;20211;-87
2021/12/10 07:11:22;;;;;;;26.07;16.73;;;-0.30;99.90;;;;;;5031210;28;20172;-88
2021/12/10 07:13:53;;;;;;;25.27;15.97;;;-0.30;99.90;;;;;;5031455;28;20169;-88
2021/12/10 07:16:22;;;;;;;22.30;15.00;;;-0.30;99.90;;;;;;5014113;28;20177;-88
2021/12/10 07:18:48;;;;;;;23.70;15.47;;;-0.10;99.90;;;;;;5031068;28;20184;-88
2021/12/10 07:21:15;;;;;;;24.37;15.07;;;0.00;99.90;;;;;;5013555;28;20181;-88
2021/12/10 07:23:42;;;;;;;22.90;15.50;;;0.10;99.90;;;;;;5013651;28;20238;-89
2021/12/10 07:26:12;;;;;;;23.47;15.17;;;0.10;99.90;;;;;;5014479;28;20173;-89
2021/12/10 07:28:38;;;;;;;25.73;15.53;;;0.00;99.90;;;;;;5032091;28;20176;-88
2021/12/10 07:31:05;;;;;;;26.77;15.83;;;-0.10;99.90;;;;;;5031994;28;20172;-90
2021/12/10 07:33:31;;;;;;;25.07;15.47;;;-0.30;99.90;;;;;;5014731;28;20222;-89
2021/12/10 07:35:57;;;;;;;24.90;15.87;;;-0.30;99.90;;;;;;5014260;28;20181;-89
2021/12/10 07:38:23;;;;;;;24.93;15.70;;;-0.30;99.90;;;;;;5031711;28;20223;-89
2021/12/10 07:40:50;;;;;;;28.73;16.97;;;-0.30;99.90;;;;;;5032338;28;20183;-89
2021/12/10 07:43:16;;;;;;;24.90;15.93;;;-0.20;99.90;;;;;;5017351;28;20188;-87
2021/12/10 07:45:46;;;;;;;24.50;16.63;;;-0.20;99.90;;;;;;5036304;28;20177;-89
2021/12/10 07:48:17;;;;;;;25.47;15.93;;;0.00;99.90;;;;;;5014788;28;20205;-90
2021/12/10 07:50:52;;;;;;;26.57;17.10;;;0.00;99.90;;;;;;5019069;28;20664;-89
2021/12/10 07:53:22;;;;;;;24.20;16.03;;;0.10;99.90;;;;;;5025539;28;20173;-91
2021/12/10 07:55:49;;;;;;;27.37;16.97;;;0.10;99.90;;;;;;5023073;28;20181;-88
2021/12/10 07:58:16;;;;;;;26.87;17.33;;;0.20;99.90;;;;;;5019683;28;20184;-88
2021/12/10 08:00:47;;;;;;;29.00;19.00;;;0.30;99.90;;;;;;5017121;28;20173;-89
2021/12/10 08:03:17;;;;;;;29.47;18.67;;;0.10;99.90;;;;;;5019549;28;20191;-89
2021/12/10 08:05:44;;;;;;;36.27;19.17;;;-0.10;99.90;;;;;;5024813;28;20178;-89
2021/12/10 08:08:12;;;;;;;34.97;18.87;;;-0.20;99.90;;;;;;5029312;28;20180;-89
2021/12/10 08:10:41;;;;;;;33.73;19.37;;;-0.30;99.90;;;;;;5021977;28;20204;-89
2021/12/10 08:13:07;;;;;;;31.07;18.70;;;-0.20;99.90;;;;;;5019292;28;20182;-90
2021/12/10 08:15:36;;;;;;;30.10;18.60;;;0.00;99.90;;;;;;5017358;28;20181;-90
2021/12/10 08:18:03;;;;;;;27.73;18.30;;;0.00;99.90;;;;;;5033199;28;20170;-90
2021/12/10 08:20:30;;;;;;;30.87;18.43;;;-0.20;99.90;;;;;;5015106;28;20189;-90
2021/12/10 08:22:56;;;;;;;29.03;18.30;;;-0.20;99.90;;;;;;5018867;28;20180;-90
2021/12/10 08:25:23;;;;;;;36.83;21.27;;;0.00;99.90;;;;;;5018325;28;20239;-91
2021/12/10 08:27:50;;;;;;;32.03;20.23;;;0.30;99.90;;;;;;5019053;28;20177;-90
2021/12/10 08:30:19;;;;;;;34.13;21.80;;;0.60;99.90;;;;;;5022200;28;20223;-90
2021/12/10 08:32:46;;;;;;;34.63;20.97;;;0.60;99.90;;;;;;5022815;28;20172;-90
2021/12/10 08:35:15;;;;;;;31.00;19.50;;;0.70;99.90;;;;;;5037731;28;20528;-89
2021/12/10 08:37:41;;;;;;;32.13;20.77;;;0.90;99.90;;;;;;5023053;28;20185;-89
2021/12/10 08:40:11;;;;;;;36.90;21.27;;;0.90;99.90;;;;;;5031614;28;20178;-90
2021/12/10 08:42:37;;;;;;;31.17;20.00;;;1.00;99.90;;;;;;5023493;28;20268;-90
2021/12/10 08:45:05;;;;;;;36.07;20.57;;;1.10;99.90;;;;;;5020113;28;20209;-89
2021/12/10 08:47:30;;;;;;;33.83;20.77;;;1.10;99.90;;;;;;5047755;28;20219;-90
2021/12/10 08:49:56;;;;;;;31.27;19.67;;;1.10;99.90;;;;;;5055563;28;20217;-89
2021/12/10 08:52:23;;;;;;;32.97;20.37;;;1.20;99.90;;;;;;5020603;28;20738;-90
2021/12/10 08:54:49;;;;;;;31.70;18.80;;;1.00;99.90;;;;;;5036432;28;20170;-90
2021/12/10 08:57:16;;;;;;;26.73;17.87;;;0.80;99.90;;;;;;5035212;28;20202;-90
2021/12/10 08:59:42;;;;;;;26.07;16.80;;;0.70;99.90;;;;;;5034289;28;20169;-90
2021/12/10 09:02:12;;;;;;;22.60;15.40;;;0.40;99.90;;;;;;5035215;28;20173;-90
2021/12/10 09:04:41;;;;;;;23.73;14.43;;;0.50;99.90;;;;;;5026541;28;20185;-88
2021/12/10 09:07:11;;;;;;;25.43;16.87;;;0.50;99.90;;;;;;5046423;28;20185;-90
2021/12/10 09:09:41;;;;;;;24.30;15.70;;;0.60;99.90;;;;;;5044489;28;20261;-88
2021/12/10 09:12:12;;;;;;;24.30;15.60;;;0.50;99.90;;;;;;5037445;28;20242;-89
2021/12/10 09:14:44;;;;;;;28.13;16.90;;;0.20;99.90;;;;;;5020611;28;20182;-89
2021/12/10 09:17:20;;;;;;;24.47;15.13;;;0.30;99.90;;;;;;5019383;28;20247;-89
2021/12/10 09:19:46;;;;;;;26.30;16.10;;;0.50;99.90;;;;;;5035456;28;20167;-89
2021/12/10 09:22:12;;;;;;;22.73;15.30;;;0.60;99.90;;;;;;5016582;28;20523;-87
2021/12/10 09:24:40;;;;;;;23.37;16.13;;;0.70;99.90;;;;;;5018223;28;20236;-89
2021/12/10 09:27:07;;;;;;;26.10;15.97;;;0.70;99.90;;;;;;5033346;28;20239;-89
2021/12/10 09:29:36;;;;;;;26.10;16.77;;;0.80;99.90;;;;;;5033087;28;20200;-90
2021/12/10 09:32:08;;;;;;;25.13;16.07;;;0.80;99.90;;;;;;5033856;28;20530;-89
2021/12/10 09:34:34;;;;;;;26.30;16.83;;;0.70;99.90;;;;;;5015825;28;20176;-89
2021/12/10 09:37:01;;;;;;;25.93;16.70;;;0.70;99.90;;;;;;5033313;28;20186;-89
2021/12/10 09:39:31;;;;;;;33.40;20.20;;;0.80;99.90;;;;;;5015087;28;20184;-89
2021/12/10 09:41:58;;;;;;;37.30;21.13;;;1.00;99.90;;;;;;5015838;28;20696;-89
2021/12/10 09:44:24;;;;;;;35.40;21.50;;;1.00;99.90;;;;;;5033180;28;20182;-90
2021/12/10 09:46:52;;;;;;;35.13;21.67;;;1.10;99.90;;;;;;5015741;28;20214;-89
2021/12/10 09:49:23;;;;;;;33.40;20.33;;;1.10;99.90;;;;;;5015252;28;20212;-89
2021/12/10 09:51:55;;;;;;;34.07;20.20;;;1.20;99.90;;;;;;5032870;28;20246;-88
2021/12/10 09:54:23;;;;;;;35.70;20.00;;;1.30;99.90;;;;;;5016402;28;20653;-87
2021/12/10 09:57:04;;;;;;;34.33;18.67;;;1.30;99.90;;;;;;5015791;28;20184;-90
2021/12/10 09:59:31;;;;;;;35.83;20.93;;;1.30;99.90;;;;;;5016154;28;20188;-89
2021/12/10 10:01:59;;;;;;;38.77;21.60;;;1.30;99.90;;;;;;5033418;28;20214;-89
2021/12/10 10:04:27;;;;;;;35.17;20.93;;;1.40;99.90;;;;;;5016495;28;20776;-89
2021/12/10 10:06:59;;;;;;;33.27;20.47;;;1.50;99.90;;;;;;5034493;28;20161;-89
2021/12/10 10:09:27;;;;;;;34.93;19.93;;;1.60;99.90;;;;;;5015702;28;20243;-89
2021/12/10 10:12:01;;;;;;;35.20;19.40;;;1.50;99.90;;;;;;5033224;28;20173;-90
2021/12/10 10:14:27;;;;;;;33.70;19.63;;;1.50;99.90;;;;;;5033752;28;20615;-89
2021/12/10 10:16:54;;;;;;;30.50;19.20;;;1.50;99.90;;;;;;5038787;28;20182;-90
2021/12/10 10:19:21;;;;;;;28.67;18.07;;;1.50;99.90;;;;;;5018077;28;20315;-89
2021/12/10 10:22:34;;;;;;;33.57;19.70;;;1.60;99.90;;;;;;5030758;28;20176;-90
2021/12/10 10:33:10;;;;;;;32.97;18.43;;;1.60;99.90;;;;;;5052558;28;20214;-89
2021/12/10 10:36:36;;;;;;;28.77;17.23;;;1.80;99.90;;;;;;5056553;28;20149;-89
2021/12/10 10:39:21;;;;;;;30.87;17.63;;;1.70;99.90;;;;;;5442934;23;20249;-90
2021/12/10 10:41:53;;;;;;;30.60;16.80;;;1.60;99.90;;;;;;5053731;28;20201;-88
2021/12/10 10:52:37;;;;;;;29.27;16.83;;;1.40;99.90;;;;;;5023953;28;20237;-90
2021/12/10 10:55:20;;;;;;;28.53;16.50;;;1.50;99.90;;;;;;5017217;28;20189;-90
2021/12/10 10:58:12;;;;;;;27.67;16.83;;;1.30;99.90;;;;;;5031256;28;20209;-88
2021/12/10 11:01:21;;;;;;;30.43;17.03;;;1.30;99.90;;;;;;5030722;28;20169;-89
2021/12/10 11:04:17;;;;;;;27.80;16.03;;;1.10;99.90;;;;;;5025501;28;20195;-89
2021/12/10 11:17:36;;;;;;;28.77;15.53;;;1.10;99.90;;;;;;5152165;27;20555;-87
2021/12/10 11:20:15;;;;;;;27.37;15.63;;;1.30;99.90;;;;;;5151533;27;20188;-89
2021/12/10 11:22:50;;;;;;;27.30;16.47;;;1.40;99.90;;;;;;5153368;27;20194;-89
2021/12/10 11:25:20;;;;;;;27.17;16.23;;;1.40;99.90;;;;;;5152746;27;20208;-89
2021/12/10 11:27:47;;;;;;;29.13;17.70;;;1.30;99.90;;;;;;5152394;27;20177;-89
2021/12/10 11:30:24;;;;;;;31.03;17.03;;;1.40;99.90;;;;;;5152107;27;20206;-89
2021/12/10 11:33:00;;;;;;;31.50;17.70;;;1.40;99.90;;;;;;5153252;27;20162;-89
2021/12/10 11:35:34;;;;;;;29.60;16.60;;;1.40;99.90;;;;;;5152438;27;20265;-88
2021/12/10 11:38:23;;;;;;;26.33;16.53;;;1.40;99.90;;;;;;5149924;27;20173;-89
2021/12/10 11:41:17;;;;;;;27.70;16.57;;;1.60;99.90;;;;;;5157340;27;20135;-89
2021/12/10 11:47:27;;;;;;;24.97;15.73;;;1.70;99.90;;;;;;5160325;27;20204;-89
2021/12/10 11:49:54;;;;;;;22.47;14.03;;;1.80;99.90;;;;;;5167457;27;20641;-90
2021/12/10 11:52:25;;;;;;;22.63;14.83;;;1.70;99.90;;;;;;5168224;27;20240;-89
2021/12/10 11:54:55;;;;;;;24.50;14.57;;;1.80;99.90;;;;;;5166878;27;20168;-89
2021/12/10 11:57:30;;;;;;;26.90;15.10;;;1.70;99.90;;;;;;5159247;27;20277;-88
2021/12/10 12:00:20;;;;;;;22.67;14.90;;;1.70;99.90;;;;;;5166671;27;20192;-88
2021/12/10 12:03:03;;;;;;;21.20;13.73;;;1.80;99.90;;;;;;5167320;27;20167;-91
2021/12/10 12:05:38;;;;;;;26.07;16.17;;;1.90;99.90;;;;;;5163768;27;20191;-90
2021/12/10 12:08:07;;;;;;;23.53;14.60;;;1.90;99.90;;;;;;5144871;27;20592;-89
2021/12/10 12:10:42;;;;;;;20.53;13.87;;;2.00;99.90;;;;;;5405924;22;20238;-90
2021/12/10 12:16:16;;;;;;;22.10;13.90;;;2.10;99.90;;;;;;5101042;28;20151;-89
2021/12/10 12:18:46;;;;;;;21.83;14.50;;;2.20;99.90;;;;;;5081556;28;20190;-89
2021/12/10 12:27:14;;;;;;;21.07;13.87;;;2.20;99.90;;;;;;5097189;28;20162;-90
2021/12/10 12:29:52;;;;;;;20.47;13.37;;;2.30;99.90;;;;;;5097769;28;20160;-89
2021/12/10 12:32:34;;;;;;;21.07;14.27;;;2.20;99.90;;;;;;5093017;28;20232;-89
2021/12/10 12:35:27;;;;;;;20.33;13.83;;;2.20;99.90;;;;;;5096786;28;20193;-90
2021/12/10 12:38:15;;;;;;;20.27;13.53;;;2.10;99.90;;;;;;5077904;28;20185;-87
2021/12/10 12:41:06;;;;;;;24.80;13.60;;;1.90;99.90;;;;;;5093858;28;20194;-90
2021/12/10 12:43:35;;;;;;;21.30;13.70;;;1.70;99.90;;;;;;5084503;28;20169;-90
2021/12/10 12:46:11;;;;;;;23.67;14.87;;;1.70;99.90;;;;;;5080218;28;20297;-91
2021/12/10 12:49:23;;;;;;;21.23;13.70;;;1.70;99.90;;;;;;5094821;28;20184;-90
2021/12/10 12:52:13;;;;;;;20.90;13.47;;;1.70;99.90;;;;;;5096162;28;20160;-89
2021/12/10 12:55:08;;;;;;;22.03;14.67;;;1.70;99.90;;;;;;5074189;28;20166;-89
2021/12/10 13:00:58;;;;;;;23.10;14.23;;;1.80;99.90;;;;;;5138289;22;20281;-89
2021/12/10 13:04:14;;;;;;;22.47;14.63;;;1.80;99.90;;;;;;5078296;28;20173;-89
2021/12/10 13:06:58;;;;;;;23.07;14.37;;;1.90;99.90;;;;;;4968810;28;20215;-89
2021/12/10 13:09:38;;;;;;;25.47;14.30;;;1.90;99.90;;;;;;4993526;28;20169;-89
2021/12/10 13:12:22;;;;;;;23.67;14.80;;;2.00;99.90;;;;;;4993100;28;20191;-88
2021/12/10 13:14:57;;;;;;;23.87;14.23;;;1.90;99.90;;;;;;4980698;28;20188;-89
2021/12/10 13:17:48;;;;;;;22.17;14.00;;;2.00;99.90;;;;;;4996659;28;20194;-90
2021/12/10 13:34:27;;;;;;;22.20;14.00;;;1.80;99.90;;;;;;5700984;22;21599;-87
2021/12/10 13:37:27;;;;;;;23.37;13.80;;;1.50;99.90;;;;;;5057936;28;20178;-88
2021/12/10 13:43:24;;;;;;;20.40;13.23;;;1.80;99.90;;;;;;5057659;28;20276;-89
2021/12/10 13:45:59;;;;;;;22.00;14.00;;;1.80;99.90;;;;;;5046048;28;20297;-88
2021/12/10 13:51:32;;;;;;;23.33;14.20;;;1.80;99.90;;;;;;5058519;28;20188;-89
2021/12/10 13:54:25;;;;;;;20.80;13.17;;;1.80;99.90;;;;;;5047527;28;20202;-89
2021/12/10 13:57:02;;;;;;;23.90;14.70;;;1.70;99.90;;;;;;5033263;28;20190;-89
2021/12/10 13:59:30;;;;;;;21.57;13.67;;;1.70;99.90;;;;;;5016051;28;20190;-88
2021/12/10 14:02:03;;;;;;;24.33;15.23;;;1.50;99.90;;;;;;5019881;28;20185;-89
2021/12/10 14:04:39;;;;;;;23.73;14.47;;;1.60;99.90;;;;;;5031453;28;20219;-90
2021/12/10 14:07:09;;;;;;;23.57;14.77;;;1.60;99.90;;;;;;5019155;28;20196;-92